Time;durP1;ratioP1;P1;durP2;ratioP2;P2;SDS_P1;SDS_P2;PMS_P1;PMS_P2;Temp;Humidity;BMP_temperature;BMP_pressure;BME280_temperature;BME280_humidity;BME280_pressure;Samples;Min_cycle;Max_cycle;Signal;HPM_P1;HPM_P2
2021/12/02 00:01:31;;;;;;;1.52;1.00;;;;;;;5.83;77.12;94058.78;4822747;29;20046;-46
2021/12/02 00:03:59;;;;;;;1.15;0.75;;;;;;;5.89;76.88;94061.19;4822707;29;20106;-45
2021/12/02 00:06:26;;;;;;;1.40;0.70;;;;;;;5.89;77.12;94064.66;4823122;29;20500;-48
2021/12/02 00:08:53;;;;;;;1.50;0.90;;;;;;;5.91;77.01;94064.31;4823939;29;20046;-47
2021/12/02 00:11:20;;;;;;;1.10;0.85;;;;;;;5.81;77.28;94057.56;4823953;29;20081;-47
2021/12/02 00:16:33;;;;;;;1.27;0.88;;;;;;;5.92;77.51;94063.97;4805789;29;20043;-46
2021/12/02 00:21:50;;;;;;;1.30;0.88;;;;;;;6.01;76.50;94055.75;4805539;29;20050;-47
2021/12/02 00:24:19;;;;;;;1.42;0.90;;;;;;;5.81;76.77;94050.28;4843885;24;20054;-49
2021/12/02 00:26:48;;;;;;;0.85;0.70;;;;;;;5.83;76.77;94056.09;4841777;29;20049;-50
2021/12/02 00:29:21;;;;;;;0.90;0.73;;;;;;;5.78;76.38;94050.97;4840407;29;20129;-52
2021/12/02 00:31:50;;;;;;;1.02;0.70;;;;;;;5.78;75.97;94042.16;4831811;29;20054;-49
2021/12/02 00:34:19;;;;;;;1.60;0.85;;;;;;;5.75;76.09;94043.63;4826233;29;20053;-49
2021/12/02 00:36:46;;;;;;;0.95;0.70;;;;;;;5.67;76.50;94047.25;4805661;29;20128;-49
2021/12/02 00:39:16;;;;;;;1.40;0.95;;;;;;;5.73;76.61;94042.44;4805370;29;20050;-49
2021/12/02 00:41:44;;;;;;;2.17;0.80;;;;;;;5.76;76.45;94053.25;4828783;29;20050;-48
2021/12/02 00:44:13;;;;;;;1.67;1.00;;;;;;;5.82;76.31;94051.84;4805628;29;20527;-49
2021/12/02 00:46:40;;;;;;;1.00;0.80;;;;;;;5.72;76.67;94055.06;4806193;29;20123;-49
2021/12/02 00:49:11;;;;;;;0.90;0.70;;;;;;;5.67;76.44;94047.25;4824009;29;20058;-48
2021/12/02 00:51:40;;;;;;;0.82;0.60;;;;;;;5.63;76.54;94055.22;4807217;29;20055;-46
2021/12/02 00:54:10;;;;;;;1.35;0.80;;;;;;;5.71;76.15;94061.53;4820982;29;20119;-48
2021/12/02 00:56:38;;;;;;;1.52;0.85;;;;;;;5.82;75.46;94059.13;4810014;29;20622;-48
2021/12/02 00:59:07;;;;;;;0.80;0.70;;;;;;;5.71;75.74;94069.59;4822113;29;20129;-47
2021/12/02 01:01:36;;;;;;;1.05;0.75;;;;;;;5.73;76.00;94061.97;4788703;29;20142;-47
2021/12/02 01:04:12;;;;;;;0.73;0.65;;;;;;;5.77;75.70;94057.47;4807986;29;20099;-51
2021/12/02 01:06:40;;;;;;;1.63;0.88;;;;;;;5.74;75.79;94054.72;4823388;29;20188;-50
2021/12/02 01:09:09;;;;;;;2.28;0.90;;;;;;;5.66;76.17;94051.09;4804832;29;20133;-50
2021/12/02 01:11:37;;;;;;;1.05;0.73;;;;;;;5.67;75.99;94065.28;4805164;29;20493;-49
2021/12/02 01:14:06;;;;;;;1.15;0.90;;;;;;;5.62;76.20;94072.47;4811726;29;20054;-51
2021/12/02 01:16:33;;;;;;;0.82;0.68;;;;;;;5.36;76.69;94039.97;4823039;29;20519;-48
2021/12/02 01:19:00;;;;;;;1.27;0.70;;;;;;;5.51;76.14;94065.25;4823163;29;20049;-51
2021/12/02 01:21:28;;;;;;;1.60;0.63;;;;;;;5.48;76.36;94060.59;4817293;29;20052;-49
2021/12/02 01:24:00;;;;;;;0.95;0.60;;;;;;;5.53;75.96;94063.03;4833373;29;20512;-48
2021/12/02 01:26:29;;;;;;;1.00;0.60;;;;;;;5.53;75.67;94052.28;4822779;29;20047;-49
2021/12/02 01:28:57;;;;;;;2.97;0.95;;;;;;;5.36;75.91;94046.16;4822575;29;20054;-52
2021/12/02 01:31:30;;;;;;;1.02;0.70;;;;;;;5.34;76.25;94061.78;4823242;29;20064;-47
2021/12/02 01:34:01;;;;;;;0.98;0.80;;;;;;;5.36;76.23;94058.75;4813671;29;20505;-51
2021/12/02 01:36:36;;;;;;;2.10;0.60;;;;;;;5.34;76.08;94058.34;4823662;29;20078;-53
2021/12/02 01:39:05;;;;;;;1.13;0.80;;;;;;;5.18;76.43;94046.81;4813623;29;20039;-52
2021/12/02 01:41:47;;;;;;;1.17;0.80;;;;;;;5.27;75.93;94056.25;4804781;29;20453;-50
2021/12/02 01:44:15;;;;;;;1.85;0.90;;;;;;;5.21;76.38;94048.81;4818199;29;20086;-52
2021/12/02 01:46:44;;;;;;;1.52;0.85;;;;;;;5.24;75.87;94046.22;4821372;29;20078;-50
2021/12/02 01:49:13;;;;;;;0.80;0.73;;;;;;;5.11;76.62;94050.09;4822878;29;20133;-53
2021/12/02 01:51:43;;;;;;;1.00;0.70;;;;;;;5.14;76.29;94047.50;4822684;29;20047;-54
2021/12/02 01:54:13;;;;;;;2.15;0.80;;;;;;;5.14;76.14;94039.44;4822353;29;20129;-54
2021/12/02 01:56:46;;;;;;;1.70;0.80;;;;;;;5.07;76.29;94051.88;4808305;29;20061;-50
2021/12/02 01:59:17;;;;;;;1.80;0.70;;;;;;;5.21;75.56;94046.91;4822694;29;20042;-50
2021/12/02 02:01:45;;;;;;;0.73;0.45;;;;;;;5.15;76.05;94046.34;4807967;29;20079;-52
2021/12/02 02:04:14;;;;;;;1.42;0.80;;;;;;;5.17;75.92;94051.41;4809341;29;20042;-51
2021/12/02 02:06:57;;;;;;;1.00;0.70;;;;;;;5.18;75.94;94044.91;4804032;29;20070;-52
2021/12/02 02:09:27;;;;;;;1.65;0.70;;;;;;;5.01;76.92;94048.69;4788627;29;20492;-54
2021/12/02 02:11:55;;;;;;;1.77;0.50;;;;;;;5.06;76.41;94053.00;4804818;29;20064;-54
2021/12/02 02:14:26;;;;;;;1.13;1.00;;;;;;;5.15;76.24;94045.59;4812876;29;20486;-52
2021/12/02 02:16:54;;;;;;;1.33;0.52;;;;;;;5.19;76.37;94056.41;4803060;29;20050;-52
2021/12/02 02:19:22;;;;;;;2.78;0.70;;;;;;;5.09;76.90;94068.41;4811548;29;20047;-51
2021/12/02 02:21:49;;;;;;;0.80;0.80;;;;;;;5.03;77.08;94059.81;4804392;29;20529;-52
2021/12/02 02:24:17;;;;;;;2.55;0.77;;;;;;;5.11;77.02;94064.25;4806528;29;20104;-49
2021/12/02 02:26:45;;;;;;;1.48;0.70;;;;;;;5.16;76.88;94060.53;4842410;29;20072;-51
2021/12/02 02:29:13;;;;;;;2.13;0.70;;;;;;;5.09;77.56;94060.34;4812964;29;20042;-52
2021/12/02 02:31:43;;;;;;;1.42;0.82;;;;;;;5.34;76.36;94061.78;4825772;29;20142;-50
2021/12/02 02:34:12;;;;;;;0.98;0.68;;;;;;;5.32;76.46;94069.38;4823653;29;20063;-47
2021/12/02 02:36:50;;;;;;;1.45;0.98;;;;;;;5.19;77.33;94065.22;4825591;29;20054;-48
2021/12/02 02:39:18;;;;;;;1.27;0.80;;;;;;;5.25;77.09;94066.53;4824853;29;20460;-50
2021/12/02 02:41:46;;;;;;;0.90;0.75;;;;;;;5.22;77.22;94069.13;4815058;29;20074;-52
2021/12/02 02:44:13;;;;;;;2.20;0.90;;;;;;;5.29;77.26;94067.38;4824284;29;20133;-48
2021/12/02 02:46:41;;;;;;;1.13;0.82;;;;;;;5.09;79.01;94060.34;4821144;29;20366;-50
2021/12/02 02:49:12;;;;;;;1.40;1.08;;;;;;;5.15;78.78;94067.03;4816379;29;20046;-49
2021/12/02 02:51:41;;;;;;;2.72;0.90;;;;;;;5.17;79.13;94067.47;4824287;29;20081;-47
2021/12/02 02:54:10;;;;;;;1.60;1.13;;;;;;;5.12;79.58;94075.75;4840331;29;20049;-48
2021/12/02 02:56:45;;;;;;;2.20;1.05;;;;;;;5.08;80.78;94064.94;4807285;29;20058;-48
2021/12/02 03:12:07;;;;;;;1.45;1.05;;;;;;;4.70;85.10;94084.19;4823517;29;20133;-48
2021/12/02 03:17:09;;;;;;;2.53;1.40;;;;;;;4.42;88.11;94092.19;4832288;29;20416;-51
2021/12/02 03:19:41;;;;;;;2.33;1.02;;;;;;;4.03;91.37;94115.06;4807059;29;20067;-51
2021/12/02 03:22:09;;;;;;;1.48;0.60;;;;;;;3.61;92.82;94116.06;4813854;29;20513;-47
2021/12/02 03:24:36;;;;;;;1.15;0.70;;;;;;;3.24;95.19;94120.53;4813641;29;20577;-46
2021/12/02 03:27:04;;;;;;;0.50;0.50;;;;;;;3.10;96.42;94125.38;4816497;29;20138;-47
2021/12/02 03:29:32;;;;;;;1.98;0.80;;;;;;;3.03;96.88;94115.25;4805391;29;20053;-47
2021/12/02 03:31:59;;;;;;;1.13;0.40;;;;;;;2.96;96.87;94115.78;4819138;29;20466;-53
2021/12/02 03:34:27;;;;;;;0.50;0.30;;;;;;;3.33;94.41;94133.81;4829167;29;20053;-47
2021/12/02 03:36:54;;;;;;;0.80;0.20;;;;;;;3.50;92.38;94128.28;4830880;29;20055;-47
2021/12/02 03:39:21;;;;;;;1.45;0.40;;;;;;;3.04;95.50;94130.94;4824927;29;20129;-46
2021/12/02 03:41:48;;;;;;;0.65;0.30;;;;;;;3.22;91.83;94128.13;4825094;29;20137;-46
2021/12/02 03:44:15;;;;;;;1.38;0.38;;;;;;;3.33;90.82;94129.25;4838221;29;20058;-47
2021/12/02 03:46:42;;;;;;;0.63;0.30;;;;;;;2.70;95.68;94131.22;4819508;29;20053;-46
2021/12/02 03:49:09;;;;;;;1.25;0.50;;;;;;;3.08;92.74;94131.03;4814670;29;20440;-50
2021/12/02 03:51:37;;;;;;;1.08;0.40;;;;;;;3.18;91.71;94127.19;4825955;29;20180;-48
2021/12/02 03:54:04;;;;;;;1.20;0.47;;;;;;;3.21;91.91;94129.97;4842217;29;20053;-53
2021/12/02 03:56:31;;;;;;;1.98;0.43;;;;;;;2.79;95.31;94116.72;4839134;29;20066;-49
2021/12/02 03:58:58;;;;;;;3.33;0.60;;;;;;;2.96;94.39;94115.78;4815815;29;20057;-51
2021/12/02 04:01:25;;;;;;;0.30;0.30;;;;;;;3.07;92.52;94120.69;4824258;29;20495;-49
2021/12/02 04:03:53;;;;;;;2.58;0.43;;;;;;;3.14;91.57;94123.63;4822627;29;20045;-48
2021/12/02 04:06:20;;;;;;;2.47;0.50;;;;;;;3.14;92.72;94118.28;4820287;29;20187;-47
2021/12/02 04:16:37;;;;;;;1.35;0.40;;;;;;;3.25;93.07;94117.53;4804905;29;20051;-50
2021/12/02 04:19:06;;;;;;;0.88;0.40;;;;;;;3.60;90.30;94113.69;4808227;29;20042;-49
2021/12/02 04:21:39;;;;;;;0.45;0.30;;;;;;;3.47;90.05;94118.25;4833063;29;20052;-49
2021/12/02 04:24:06;;;;;;;0.40;0.30;;;;;;;3.34;91.28;94117.44;4824615;29;20526;-49
2021/12/02 04:26:32;;;;;;;0.60;0.60;;;;;;;3.18;92.52;94111.16;4812676;29;20609;-50
2021/12/02 04:29:00;;;;;;;0.73;0.30;;;;;;;2.93;94.21;94111.09;4790050;29;20104;-49
2021/12/02 04:31:27;;;;;;;0.55;0.45;;;;;;;3.13;92.99;94092.66;4819502;29;20057;-50
2021/12/02 04:33:54;;;;;;;0.98;0.47;;;;;;;3.14;92.67;94103.00;4815005;29;20119;-49
2021/12/02 04:36:20;;;;;;;0.65;0.35;;;;;;;3.32;93.61;94108.97;4841926;29;20060;-49
2021/12/02 04:38:47;;;;;;;1.15;0.50;;;;;;;3.50;93.22;94106.88;4839301;29;20073;-51
2021/12/02 04:41:16;;;;;;;1.55;0.40;;;;;;;3.81;90.56;94109.06;4805423;29;20417;-50
2021/12/02 04:43:43;;;;;;;0.70;0.40;;;;;;;3.72;89.79;94114.50;4812986;29;20042;-48
2021/12/02 04:46:10;;;;;;;3.65;0.50;;;;;;;3.62;91.75;94098.91;4840619;29;20504;-51
2021/12/02 04:48:37;;;;;;;1.98;0.60;;;;;;;3.93;88.90;94109.06;4822091;29;20053;-53
2021/12/02 04:51:04;;;;;;;1.33;0.40;;;;;;;3.57;93.29;94106.34;4823578;29;20141;-51
2021/12/02 04:53:31;;;;;;;0.90;0.55;;;;;;;3.83;89.87;94109.47;4820465;29;20058;-50
2021/12/02 04:55:58;;;;;;;1.50;0.55;;;;;;;4.30;88.59;94106.38;4819302;29;20050;-50
2021/12/02 04:58:25;;;;;;;1.60;0.57;;;;;;;4.21;87.50;94105.69;4822560;29;20050;-49
2021/12/02 05:00:52;;;;;;;3.10;0.57;;;;;;;3.94;88.96;94110.63;4823100;29;20042;-51
2021/12/02 05:03:19;;;;;;;1.25;0.60;;;;;;;4.01;88.94;94111.97;4829392;29;20046;-51
2021/12/02 05:05:47;;;;;;;0.68;0.60;;;;;;;4.09;88.46;94121.75;4808362;29;20061;-51
2021/12/02 05:08:14;;;;;;;1.27;0.70;;;;;;;3.62;92.54;94111.50;4804255;29;20050;-49
2021/12/02 05:10:41;;;;;;;2.40;0.70;;;;;;;3.83;90.28;94106.81;4804976;29;20070;-51
2021/12/02 05:13:08;;;;;;;0.82;0.50;;;;;;;4.32;87.71;94104.16;4821617;29;20060;-48
2021/12/02 05:15:34;;;;;;;2.28;0.60;;;;;;;3.99;91.38;94109.59;4811430;29;20054;-49
2021/12/02 05:18:01;;;;;;;1.65;0.80;;;;;;;4.29;89.67;94118.19;4805069;29;20429;-53
2021/12/02 05:20:29;;;;;;;1.30;0.70;;;;;;;4.06;92.25;94114.41;4810410;29;20107;-53
2021/12/02 05:22:56;;;;;;;0.98;0.70;;;;;;;3.82;93.47;94117.84;4803710;29;20081;-52
2021/12/02 05:25:22;;;;;;;1.33;0.63;;;;;;;3.83;93.87;94122.88;4822817;29;20056;-50
2021/12/02 05:27:49;;;;;;;2.67;0.50;;;;;;;3.91;91.14;94110.50;4811838;29;20061;-53
2021/12/02 05:30:16;;;;;;;1.60;0.70;;;;;;;3.87;91.10;94105.06;4821176;29;20058;-50
2021/12/02 05:32:43;;;;;;;0.82;0.70;;;;;;;3.74;91.48;94101.59;4821924;29;20086;-50
2021/12/02 05:35:11;;;;;;;3.30;0.80;;;;;;;4.11;89.96;94098.91;4827728;29;20058;-49
2021/12/02 05:37:38;;;;;;;2.15;0.88;;;;;;;4.35;88.55;94106.13;4840983;29;20444;-52
2021/12/02 05:40:05;;;;;;;2.92;1.00;;;;;;;4.17;89.10;94112.84;4839575;29;20513;-51
2021/12/02 05:42:32;;;;;;;1.80;0.90;;;;;;;3.88;90.78;94111.94;4808808;29;20060;-48
2021/12/02 05:44:59;;;;;;;2.83;1.10;;;;;;;3.89;91.73;94113.50;4822482;29;20137;-51
2021/12/02 05:47:26;;;;;;;1.48;1.00;;;;;;;3.93;90.67;94119.78;4822263;29;20088;-51
2021/12/02 05:49:53;;;;;;;2.40;1.58;;;;;;;3.71;91.94;94096.13;4822790;29;20142;-53
2021/12/02 05:52:20;;;;;;;2.17;1.50;;;;;;;3.74;91.72;94106.94;4817411;29;20057;-47
2021/12/02 05:54:47;;;;;;;2.05;1.30;;;;;;;3.66;92.05;94097.09;4803798;29;20107;-51
2021/12/02 05:57:14;;;;;;;2.63;1.40;;;;;;;3.70;91.86;94105.25;4803590;29;20520;-51
2021/12/02 05:59:41;;;;;;;2.70;1.38;;;;;;;3.53;94.07;94102.78;4803848;29;20141;-50
2021/12/02 06:02:08;;;;;;;4.63;1.58;;;;;;;3.57;92.51;94092.97;4805224;29;20053;-51
2021/12/02 06:04:38;;;;;;;2.80;1.10;;;;;;;3.67;91.93;94103.22;4818259;29;20090;-49
2021/12/02 06:07:05;;;;;;;3.33;1.45;;;;;;;3.70;91.70;94091.88;4841238;29;20415;-53
2021/12/02 06:09:33;;;;;;;2.05;1.40;;;;;;;3.70;91.47;94094.53;4835404;29;20493;-54
2021/12/02 06:12:00;;;;;;;2.15;1.30;;;;;;;3.78;91.08;94104.38;4811708;29;20046;-54
2021/12/02 06:14:27;;;;;;;2.90;1.40;;;;;;;3.61;91.63;94096.56;4820851;29;20050;-54
2021/12/02 06:16:54;;;;;;;2.33;1.30;;;;;;;3.75;90.75;94102.34;4805082;29;20073;-50
2021/12/02 06:19:21;;;;;;;1.50;1.23;;;;;;;3.80;90.33;94101.34;4804224;29;20051;-50
2021/12/02 06:21:50;;;;;;;3.10;1.70;;;;;;;3.83;89.92;94101.47;4806297;29;20099;-49
2021/12/02 06:24:19;;;;;;;1.63;1.10;;;;;;;3.77;90.12;94100.16;4840586;24;20132;-44
2021/12/02 06:26:47;;;;;;;1.73;1.10;;;;;;;3.81;89.88;94106.38;4840694;29;20045;-44
2021/12/02 06:29:13;;;;;;;1.60;1.05;;;;;;;3.63;89.15;94103.13;4841510;29;20085;-46
2021/12/02 06:31:41;;;;;;;2.30;1.00;;;;;;;3.78;89.43;94115.06;4841475;29;20054;-49
2021/12/02 06:34:08;;;;;;;2.70;1.00;;;;;;;4.10;87.82;94118.75;4843867;29;20427;-49
2021/12/02 06:36:36;;;;;;;1.85;1.15;;;;;;;3.77;88.93;94123.41;4840583;29;20148;-44
2021/12/02 06:39:06;;;;;;;1.88;1.00;;;;;;;3.88;89.19;94119.22;4840313;29;20102;-43
2021/12/02 06:41:34;;;;;;;2.17;1.27;;;;;;;3.85;88.53;94126.00;4840745;29;20049;-45
2021/12/02 06:44:00;;;;;;;1.20;0.85;;;;;;;3.82;87.35;94123.22;4837672;29;20503;-45
2021/12/02 06:46:29;;;;;;;1.90;1.10;;;;;;;3.91;86.43;94134.59;4840435;29;20468;-44
2021/12/02 06:48:56;;;;;;;2.05;0.90;;;;;;;3.88;86.46;94133.34;4837867;29;20095;-50
2021/12/02 06:51:24;;;;;;;1.88;0.85;;;;;;;3.86;86.08;94135.56;4840149;29;20057;-44
2021/12/02 06:53:51;;;;;;;1.23;0.90;;;;;;;3.94;85.97;94141.94;4839835;29;20050;-46
2021/12/02 06:56:36;;;;;;;1.35;0.73;;;;;;;4.12;84.90;94145.97;4834698;29;20049;-45
2021/12/02 06:59:03;;;;;;;0.70;0.70;;;;;;;4.07;84.80;94154.22;4840173;29;20049;-44
2021/12/02 07:01:30;;;;;;;2.03;1.00;;;;;;;3.78;85.95;94141.81;4834832;29;20061;-48
2021/12/02 07:03:57;;;;;;;2.33;0.98;;;;;;;3.95;85.00;94146.19;4830048;29;20055;-48
2021/12/02 07:06:24;;;;;;;1.30;0.90;;;;;;;4.14;84.21;94151.00;4838252;29;20170;-43
2021/12/02 07:08:51;;;;;;;14.48;8.85;;;;;;;4.03;84.88;94155.19;4837855;29;20137;-49
2021/12/02 07:11:18;;;;;;;3.53;1.45;;;;;;;4.17;84.01;94161.03;4834241;29;20042;-45
2021/12/02 07:13:47;;;;;;;1.85;1.00;;;;;;;4.07;84.07;94151.53;4838470;29;20056;-45
2021/12/02 07:16:14;;;;;;;2.50;1.10;;;;;;;4.06;85.14;94149.97;4836440;29;20054;-45
2021/12/02 07:18:47;;;;;;;2.83;1.05;;;;;;;4.02;83.77;94148.31;4842651;29;20050;-44
2021/12/02 07:21:14;;;;;;;2.08;1.10;;;;;;;3.97;83.64;94146.63;4842170;29;20140;-45
2021/12/02 07:23:41;;;;;;;2.42;1.02;;;;;;;3.97;83.84;94144.75;4840562;29;20061;-45
2021/12/02 07:26:08;;;;;;;1.67;0.95;;;;;;;4.12;84.16;94155.88;4840396;29;20058;-47
2021/12/02 07:28:36;;;;;;;1.88;0.90;;;;;;;4.13;83.51;94158.25;4840722;29;20052;-50
2021/12/02 07:31:05;;;;;;;1.63;0.90;;;;;;;4.11;83.58;94152.44;4841067;29;20054;-46
2021/12/02 07:33:37;;;;;;;3.22;1.00;;;;;;;4.10;83.50;94156.22;4834372;29;20046;-47
2021/12/02 07:36:05;;;;;;;2.20;1.20;;;;;;;4.23;82.73;94165.03;4841516;29;20149;-50
2021/12/02 07:38:32;;;;;;;2.13;1.27;;;;;;;4.11;82.83;94160.47;4840908;29;20439;-45
2021/12/02 07:41:04;;;;;;;2.25;1.05;;;;;;;4.10;82.70;94161.59;4846557;29;20140;-46
2021/12/02 07:43:37;;;;;;;2.33;1.10;;;;;;;3.95;82.12;94163.00;4834522;29;20110;-46
2021/12/02 07:46:04;;;;;;;2.85;1.65;;;;;;;4.10;81.86;94160.81;4825825;29;20054;-46
2021/12/02 07:48:31;;;;;;;2.15;0.80;;;;;;;3.99;80.53;94160.44;4843056;29;20384;-45
2021/12/02 07:51:02;;;;;;;1.83;0.80;;;;;;;4.22;81.50;94150.88;4835817;29;20046;-44
2021/12/02 07:53:29;;;;;;;2.65;0.90;;;;;;;4.20;81.06;94155.00;4836516;29;20477;-46
2021/12/02 07:55:57;;;;;;;3.60;1.00;;;;;;;4.22;80.72;94158.13;4827647;29;20046;-46
2021/12/02 07:58:24;;;;;;;1.58;1.00;;;;;;;4.12;80.68;94153.97;4842074;29;20073;-46
2021/12/02 08:00:59;;;;;;;2.72;1.10;;;;;;;4.11;80.44;94157.78;4833155;29;20042;-46
2021/12/02 08:03:27;;;;;;;3.65;1.38;;;;;;;4.03;80.64;94166.72;4841197;29;20050;-46
2021/12/02 08:05:54;;;;;;;2.35;1.25;;;;;;;4.14;80.45;94164.38;4830974;29;20053;-46
2021/12/02 08:08:21;;;;;;;4.30;1.10;;;;;;;4.12;80.38;94167.38;4834407;29;20072;-44
2021/12/02 08:10:51;;;;;;;1.40;0.85;;;;;;;3.99;81.01;94144.38;4843595;29;20050;-46
2021/12/02 08:13:20;;;;;;;2.25;1.00;;;;;;;4.19;80.75;94154.22;4841889;29;20148;-48
2021/12/02 08:15:47;;;;;;;2.75;1.15;;;;;;;4.20;80.28;94152.34;4845199;29;20160;-48
2021/12/02 08:18:14;;;;;;;3.65;1.08;;;;;;;4.04;80.72;94157.56;4842706;29;20064;-48
2021/12/02 08:20:41;;;;;;;0.80;0.80;;;;;;;4.07;79.70;94153.44;4840164;29;20050;-47
2021/12/02 08:23:08;;;;;;;3.00;1.02;;;;;;;4.12;80.02;94155.88;4841227;29;20454;-48
2021/12/02 08:25:35;;;;;;;4.15;1.42;;;;;;;4.11;79.93;94141.72;4837961;29;20054;-48
2021/12/02 08:28:03;;;;;;;3.85;1.25;;;;;;;3.99;81.22;94152.41;4839910;29;20081;-46
2021/12/02 08:30:33;;;;;;;2.13;1.00;;;;;;;4.07;79.45;94158.78;4840934;29;20042;-49
2021/12/02 08:33:02;;;;;;;7.03;4.00;;;;;;;4.11;80.00;94154.34;4824561;29;20197;-45
2021/12/02 08:35:29;;;;;;;2.90;1.50;;;;;;;4.22;79.20;94147.41;4833054;29;20054;-49
2021/12/02 08:38:04;;;;;;;2.22;1.08;;;;;;;4.08;79.86;94144.28;4841713;29;20066;-49
2021/12/02 08:40:33;;;;;;;2.58;0.90;;;;;;;4.21;79.17;94146.63;4840962;29;20041;-45
2021/12/02 08:43:02;;;;;;;2.58;1.10;;;;;;;4.18;79.18;94141.16;4839202;29;20081;-45
2021/12/02 08:45:30;;;;;;;3.55;1.25;;;;;;;4.21;78.54;94146.63;4839077;29;20144;-46
2021/12/02 08:47:58;;;;;;;2.15;0.80;;;;;;;4.35;77.97;94129.44;4839865;29;20050;-49
2021/12/02 08:50:26;;;;;;;2.78;1.05;;;;;;;4.51;78.04;94140.25;4833995;29;20564;-47
2021/12/02 08:52:54;;;;;;;2.10;1.08;;;;;;;4.36;77.76;94126.44;4839608;29;20500;-46
2021/12/02 08:55:23;;;;;;;2.90;1.13;;;;;;;4.22;78.15;94144.72;4828635;29;20056;-47
2021/12/02 08:57:52;;;;;;;2.13;1.10;;;;;;;4.42;77.42;94137.72;4839251;29;20045;-46
2021/12/02 09:00:25;;;;;;;2.38;0.90;;;;;;;4.46;76.48;94130.56;4841143;29;20146;-45
2021/12/02 09:02:53;;;;;;;;;;;;;;;4.66;76.31;94143.00;4840885;29;20048;-50
2021/12/02 09:05:20;;;;;;;4.78;0.90;;;;;;;4.14;78.00;94148.31;4836709;29;19924;-46
2021/12/02 09:07:48;;;;;;;3.67;1.10;;;;;;;4.38;77.08;94144.84;4845183;29;20060;-48
2021/12/02 09:10:16;;;;;;;2.05;0.80;;;;;;;4.50;76.71;94144.81;4836786;29;20140;-45
2021/12/02 09:12:46;;;;;;;2.03;1.00;;;;;;;4.41;76.33;94144.94;4831708;29;20436;-47
2021/12/02 09:15:13;;;;;;;3.42;0.93;;;;;;;4.48;75.91;94151.63;4844124;29;20057;-48
2021/12/02 09:17:40;;;;;;;2.97;0.90;;;;;;;4.50;75.70;94146.72;4841061;29;20128;-45
2021/12/02 09:20:10;;;;;;;1.63;0.88;;;;;;;4.34;76.20;94150.09;4847974;29;20082;-45
2021/12/02 09:22:38;;;;;;;2.60;1.02;;;;;;;4.49;75.69;94151.31;4835359;29;20041;-44
2021/12/02 09:25:05;;;;;;;2.63;1.13;;;;;;;4.47;75.05;94142.03;4832040;29;20432;-44
2021/12/02 09:27:32;;;;;;;3.78;0.90;;;;;;;4.78;74.88;94138.75;4835382;29;20050;-47
2021/12/02 09:30:00;;;;;;;2.17;0.85;;;;;;;4.45;74.27;94145.03;4836484;29;20054;-45
2021/12/02 09:32:28;;;;;;;3.05;0.90;;;;;;;4.45;75.18;94156.56;4836351;29;20187;-48
2021/12/02 09:34:55;;;;;;;2.55;1.10;;;;;;;4.81;74.66;94149.59;4846345;29;20080;-44
2021/12/02 09:37:22;;;;;;;3.10;1.88;;;;;;;4.86;74.28;94138.59;4843886;29;20053;-44
2021/12/02 09:39:49;;;;;;;2.42;1.00;;;;;;;4.61;73.96;94143.22;4835894;29;20046;-47
2021/12/02 09:42:16;;;;;;;2.70;0.80;;;;;;;4.56;73.36;94156.09;4828223;29;20046;-45
2021/12/02 09:45:00;;;;;;;2.58;1.08;;;;;;;4.66;74.14;94152.94;4838111;29;20444;-46
2021/12/02 09:47:33;;;;;;;2.25;0.77;;;;;;;4.64;74.06;94142.56;4845052;29;20118;-48
2021/12/02 09:50:05;;;;;;;2.15;0.90;;;;;;;4.76;74.81;94139.09;4841613;29;20398;-46
2021/12/02 09:52:39;;;;;;;3.37;1.67;;;;;;;4.97;73.49;94135.44;4840694;29;20064;-47
2021/12/02 09:55:20;;;;;;;4.13;1.00;;;;;;;4.91;73.54;94137.59;4832236;29;20102;-47
2021/12/02 09:57:55;;;;;;;3.10;1.30;;;;;;;5.18;73.18;94122.66;4847077;29;20050;-49
2021/12/02 10:00:35;;;;;;;2.10;0.90;;;;;;;5.07;73.83;94129.59;4845408;29;20049;-47
2021/12/02 10:03:07;;;;;;;2.85;0.88;;;;;;;5.00;73.36;94137.44;4842955;29;20039;-45
2021/12/02 10:05:56;;;;;;;3.63;1.00;;;;;;;4.97;73.39;94133.53;4840799;29;20118;-49
2021/12/02 10:08:26;;;;;;;1.70;0.70;;;;;;;4.96;73.66;94133.91;4843938;29;20057;-46
2021/12/02 10:10:57;;;;;;;2.67;0.70;;;;;;;5.10;73.36;94128.91;4850543;29;20060;-46
2021/12/02 10:13:30;;;;;;;2.40;0.68;;;;;;;5.08;73.21;94128.50;4831926;29;20101;-49
2021/12/02 10:16:19;;;;;;;1.75;0.85;;;;;;;5.16;73.07;94116.84;4838310;29;21128;-45
2021/12/02 10:19:28;;;;;;;1.67;0.70;;;;;;;5.25;72.57;94116.69;4847896;29;20077;-46
2021/12/02 10:22:01;;;;;;;1.98;0.70;;;;;;;5.27;72.70;94117.16;4837937;29;20145;-45
2021/12/02 10:24:29;;;;;;;2.60;0.80;;;;;;;5.29;72.58;94131.75;4839250;29;20598;-46
2021/12/02 10:27:06;;;;;;;2.03;0.80;;;;;;;4.99;73.56;94119.81;4839084;29;20046;-45
2021/12/02 10:29:47;;;;;;;1.58;0.85;;;;;;;5.06;73.12;94109.28;4835712;29;20557;-45
2021/12/02 10:32:18;;;;;;;2.53;0.70;;;;;;;4.90;73.73;94098.50;4846676;29;20613;-47
2021/12/02 10:34:52;;;;;;;2.25;0.70;;;;;;;4.78;74.40;94107.38;4842180;29;20049;-45
2021/12/02 10:37:21;;;;;;;2.42;0.77;;;;;;;4.91;73.97;94111.59;4842276;29;20395;-48
2021/12/02 10:39:57;;;;;;;2.80;0.70;;;;;;;4.92;74.54;94099.72;4835103;29;20046;-47
2021/12/02 10:42:24;;;;;;;3.03;0.70;;;;;;;5.03;74.05;94100.03;4837586;29;20050;-44
2021/12/02 10:44:52;;;;;;;2.83;1.20;;;;;;;4.82;74.63;94104.81;4838836;29;20057;-50
2021/12/02 10:47:20;;;;;;;7.18;4.32;;;;;;;5.10;74.80;94096.75;4841502;29;20049;-47
2021/12/02 10:49:49;;;;;;;1.98;0.80;;;;;;;5.14;75.63;94095.75;4851101;29;20042;-52
2021/12/02 10:52:29;;;;;;;2.55;1.08;;;;;;;5.40;73.56;94097.19;4835821;29;20050;-49
2021/12/02 10:54:58;;;;;;;2.97;0.80;;;;;;;5.08;73.70;94090.97;4839598;29;20129;-48
2021/12/02 10:57:27;;;;;;;2.17;0.80;;;;;;;5.10;72.52;94088.72;4842673;29;20141;-46
2021/12/02 10:59:59;;;;;;;4.30;1.00;;;;;;;5.06;72.37;94080.56;4843018;29;20050;-47
2021/12/02 11:02:35;;;;;;;2.35;0.60;;;;;;;5.19;72.20;94078.63;4843036;29;20059;-46
2021/12/02 11:05:07;;;;;;;2.67;0.68;;;;;;;5.24;71.79;94074.94;4824440;29;20073;-45
2021/12/02 11:07:39;;;;;;;1.83;0.80;;;;;;;5.14;71.56;94060.91;4838817;29;20053;-46
2021/12/02 11:10:13;;;;;;;2.70;0.85;;;;;;;5.29;71.42;94074.66;4850636;29;20096;-44
2021/12/02 11:12:45;;;;;;;3.40;2.60;;;;;;;5.41;71.34;94076.50;4843205;29;20053;-47
2021/12/02 11:15:17;;;;;;;1.98;0.80;;;;;;;5.35;71.43;94062.56;4837750;29;20403;-46
2021/12/02 11:17:52;;;;;;;1.65;0.80;;;;;;;5.27;71.35;94066.97;4842899;29;20073;-48
2021/12/02 11:20:31;;;;;;;3.38;0.70;;;;;;;4.96;72.45;94064.22;4842956;29;20557;-44
2021/12/02 11:23:12;;;;;;;3.58;0.88;;;;;;;5.24;71.91;94064.97;4842653;29;20046;-46
2021/12/02 11:25:58;;;;;;;1.75;0.88;;;;;;;5.03;72.55;94061.72;4838147;29;20064;-47
2021/12/02 11:28:31;;;;;;;2.63;0.88;;;;;;;5.12;72.16;94055.09;4842398;29;20081;-45
2021/12/02 11:31:07;;;;;;;2.97;0.73;;;;;;;5.19;72.23;94057.16;4843577;29;20129;-47
2021/12/02 11:33:36;;;;;;;4.07;0.98;;;;;;;5.45;71.29;94067.41;4840026;29;20045;-48
2021/12/02 11:36:17;;;;;;;3.85;1.00;;;;;;;5.18;71.60;94069.03;4840959;29;20057;-49
2021/12/02 11:38:44;;;;;;;5.88;0.90;;;;;;;5.19;71.61;94065.22;4841488;29;20050;-48
2021/12/02 11:41:13;;;;;;;1.23;0.63;;;;;;;5.17;71.56;94054.06;4843060;29;20054;-44
2021/12/02 11:43:40;;;;;;;1.23;0.60;;;;;;;5.38;70.97;94051.91;4844299;29;20580;-46
2021/12/02 11:46:09;;;;;;;2.00;0.73;;;;;;;5.11;70.86;94037.44;4851205;29;20056;-46
2021/12/02 11:48:41;;;;;;;4.72;0.82;;;;;;;5.31;71.37;94035.66;4841338;29;20500;-45
2021/12/02 11:51:17;;;;;;;4.32;0.85;;;;;;;5.18;71.40;94030.72;4832084;29;20402;-45
2021/12/02 11:53:44;;;;;;;2.03;0.80;;;;;;;5.51;70.51;94038.44;4830282;29;20133;-44
2021/12/02 11:56:17;;;;;;;2.45;0.85;;;;;;;5.37;71.19;94038.88;4842301;29;20526;-43
2021/12/02 11:58:44;;;;;;;1.60;0.80;;;;;;;5.49;70.47;94029.94;4841146;29;20038;-46
2021/12/02 12:01:15;;;;;;;2.35;0.70;;;;;;;5.52;70.55;94032.72;4839560;29;20050;-49
2021/12/02 12:03:46;;;;;;;2.13;0.70;;;;;;;5.57;69.34;94032.47;4833091;29;20499;-47
2021/12/02 12:06:24;;;;;;;2.88;0.93;;;;;;;5.84;69.39;94033.47;4825942;29;20050;-48
2021/12/02 12:08:52;;;;;;;2.47;0.88;;;;;;;5.30;70.22;94028.75;4845946;29;20040;-46
2021/12/02 12:11:33;;;;;;;2.63;0.80;;;;;;;5.27;70.72;94024.06;4841808;29;20471;-45
2021/12/02 12:14:06;;;;;;;2.33;0.80;;;;;;;5.61;70.42;94022.59;4827668;29;20049;-43
2021/12/02 12:16:39;;;;;;;2.17;0.80;;;;;;;5.58;70.42;94027.88;4821878;29;20043;-51
2021/12/02 12:19:36;;;;;;;2.47;1.00;;;;;;;5.96;69.15;94029.19;4838300;29;20042;-47
2021/12/02 12:22:13;;;;;;;2.78;0.80;;;;;;;5.35;69.72;94020.44;4827425;29;20058;-48